Time;durP1;ratioP1;P1;durP2;ratioP2;P2;SDS_P1;SDS_P2;PMS_P1;PMS_P2;Temp;Humidity;BMP_temperature;BMP_pressure;BME280_temperature;BME280_humidity;BME280_pressure;Samples;Min_cycle;Max_cycle;Signal;HPM_P1;HPM_P2
2022/08/15 00:00:56;;;;;;;0.20;0.10;;;;;;;;;;6275117;22;20072;-83
2022/08/15 00:03:31;;;;;;;0.65;0.65;;;;;;;;;;6274979;22;20070;-83
2022/08/15 00:05:59;;;;;;;0.20;0.10;;;;;;;;;;6274953;22;20009;-82
2022/08/15 00:08:26;;;;;;;0.20;0.10;;;;;;;;;;6275599;22;20025;-82
2022/08/15 00:10:52;;;;;;;0.30;0.30;;;;;;;;;;6274265;22;20044;-82
2022/08/15 00:13:21;;;;;;;0.20;0.10;;;;;;;;;;6274256;22;20412;-82
2022/08/15 00:15:48;;;;;;;0.20;0.10;;;;;;;;;;6271904;22;20226;-82
2022/08/15 00:18:15;;;;;;;0.20;0.10;;;;;;;;;;6273173;22;20083;-81
2022/08/15 00:20:41;;;;;;;0.20;0.20;;;;;;;;;;6192256;23;20013;-82
2022/08/15 00:23:14;;;;;;;0.20;0.10;;;;;;;;;;6273818;22;20396;-82
2022/08/15 00:25:41;;;;;;;0.73;0.22;;;;;;;;;;6273055;22;20211;-82
2022/08/15 00:28:08;;;;;;;0.20;0.10;;;;;;;;;;6273976;22;20016;-82
2022/08/15 00:30:35;;;;;;;0.20;0.10;;;;;;;;;;6298059;22;20677;-82
2022/08/15 00:33:02;;;;;;;0.20;0.10;;;;;;;;;;6272999;22;20486;-82
2022/08/15 00:35:36;;;;;;;0.20;0.10;;;;;;;;;;6271330;22;20537;-82
2022/08/15 00:38:04;;;;;;;0.20;0.10;;;;;;;;;;6249142;22;20017;-82
2022/08/15 00:40:30;;;;;;;0.20;0.20;;;;;;;;;;6270761;22;20016;-82
2022/08/15 00:42:56;;;;;;;0.20;0.10;;;;;;;;;;6273392;22;20009;-82
2022/08/15 00:45:23;;;;;;;0.20;0.10;;;;;;;;;;6295532;22;20020;-81
2022/08/15 00:50:35;;;;;;;0.20;0.10;;;;;;;;;;6165212;22;20025;-82
2022/08/15 00:53:09;;;;;;;0.20;0.10;;;;;;;;;;6269558;22;20051;-82
2022/08/15 00:55:40;;;;;;;0.20;0.17;;;;;;;;;;6269367;22;20013;-82
2022/08/15 00:58:07;;;;;;;0.20;0.10;;;;;;;;;;6296187;22;20469;-81
2022/08/15 01:00:36;;;;;;;0.20;0.10;;;;;;;;;;6297410;22;20090;-82
2022/08/15 01:03:04;;;;;;;0.20;0.10;;;;;;;;;;6269259;22;20028;-83
2022/08/15 01:05:31;;;;;;;0.20;0.10;;;;;;;;;;6139019;23;20092;-83
2022/08/15 01:07:57;;;;;;;0.20;0.10;;;;;;;;;;6270296;22;20028;-82
2022/08/15 01:10:23;;;;;;;0.20;0.10;;;;;;;;;;6273842;22;20513;-83
2022/08/15 01:12:49;;;;;;;0.20;0.10;;;;;;;;;;6273636;22;20017;-83
2022/08/15 01:15:16;;;;;;;0.20;0.10;;;;;;;;;;6225551;22;1085837;-84
2022/08/15 01:17:43;;;;;;;0.50;0.20;;;;;;;;;;6114802;23;20056;-85
2022/08/15 01:20:27;;;;;;;0.20;0.10;;;;;;;;;;6119202;23;20332;-84
2022/08/15 01:23:12;;;;;;;0.20;0.10;;;;;;;;;;6121547;23;20098;-84
2022/08/15 01:25:41;;;;;;;0.20;0.10;;;;;;;;;;6139426;23;20032;-85
2022/08/15 01:28:07;;;;;;;0.20;0.10;;;;;;;;;;6173793;23;20013;-84
2022/08/15 01:30:51;;;;;;;0.20;0.10;;;;;;;;;;6173135;23;20020;-84
2022/08/15 01:33:19;;;;;;;0.20;0.10;;;;;;;;;;6174495;23;20025;-85
2022/08/15 01:35:48;;;;;;;0.20;0.10;;;;;;;;;;6149283;23;20028;-87
2022/08/15 01:38:32;;;;;;;0.20;0.10;;;;;;;;;;6173480;23;20052;-85
2022/08/15 01:41:05;;;;;;;0.20;0.10;;;;;;;;;;6175247;23;20097;-85
2022/08/15 01:43:34;;;;;;;0.20;0.10;;;;;;;;;;6174948;23;20024;-85
2022/08/15 01:46:02;;;;;;;0.20;0.10;;;;;;;;;;6174285;23;20020;-85
2022/08/15 01:48:35;;;;;;;0.20;0.10;;;;;;;;;;6168530;23;20016;-84
2022/08/15 01:51:02;;;;;;;0.20;0.20;;;;;;;;;;6169085;23;20009;-85
2022/08/15 01:53:33;;;;;;;0.20;0.10;;;;;;;;;;6170689;23;20501;-84
2022/08/15 01:56:05;;;;;;;0.28;0.20;;;;;;;;;;6170505;23;20008;-85
2022/08/15 01:58:35;;;;;;;0.20;0.10;;;;;;;;;;6171864;23;20020;-84
2022/08/15 02:01:06;;;;;;;0.20;0.10;;;;;;;;;;6171910;23;20467;-83
2022/08/15 02:03:35;;;;;;;0.20;0.10;;;;;;;;;;6170046;23;20012;-84
2022/08/15 02:06:03;;;;;;;0.20;0.10;;;;;;;;;;6171888;23;20012;-84
2022/08/15 02:08:29;;;;;;;0.20;0.20;;;;;;;;;;6170801;23;20478;-85
2022/08/15 02:10:55;;;;;;;0.20;0.10;;;;;;;;;;6144935;23;20017;-85
2022/08/15 02:13:21;;;;;;;0.20;0.10;;;;;;;;;;6150189;23;20023;-85
2022/08/15 02:15:47;;;;;;;0.20;0.10;;;;;;;;;;6146858;23;20119;-83
2022/08/15 02:18:13;;;;;;;0.20;0.10;;;;;;;;;;6145424;23;20021;-82
2022/08/15 02:20:39;;;;;;;0.20;0.10;;;;;;;;;;6147866;23;20020;-83
2022/08/15 02:23:06;;;;;;;0.30;0.20;;;;;;;;;;6149123;23;20047;-84
2022/08/15 02:25:32;;;;;;;0.20;0.10;;;;;;;;;;6173501;23;20017;-84
2022/08/15 02:27:58;;;;;;;0.20;0.10;;;;;;;;;;6172679;23;20106;-86
2022/08/15 02:30:26;;;;;;;0.20;0.10;;;;;;;;;;6172876;23;20020;-84
2022/08/15 02:32:52;;;;;;;0.20;0.10;;;;;;;;;;6173761;23;20017;-85
2022/08/15 02:35:18;;;;;;;0.20;0.10;;;;;;;;;;6150317;23;20030;-85
2022/08/15 02:37:45;;;;;;;0.20;0.10;;;;;;;;;;6181330;23;20017;-85
2022/08/15 02:40:14;;;;;;;0.20;0.10;;;;;;;;;;6180045;23;20009;-84
2022/08/15 02:42:42;;;;;;;0.20;0.10;;;;;;;;;;6174721;23;20088;-85
2022/08/15 02:45:10;;;;;;;0.20;0.10;;;;;;;;;;6178689;23;20232;-85
2022/08/15 02:47:37;;;;;;;0.20;0.10;;;;;;;;;;6177747;23;20009;-85
2022/08/15 02:50:05;;;;;;;0.20;0.10;;;;;;;;;;6151399;23;20013;-84
2022/08/15 02:52:32;;;;;;;0.40;0.17;;;;;;;;;;6175584;23;20019;-85
2022/08/15 02:54:59;;;;;;;0.20;0.10;;;;;;;;;;6175086;23;20021;-84
2022/08/15 02:57:25;;;;;;;0.20;0.10;;;;;;;;;;6172890;23;20070;-84
2022/08/15 02:59:51;;;;;;;0.20;0.10;;;;;;;;;;6149845;22;20013;-84
2022/08/15 03:02:18;;;;;;;0.20;0.10;;;;;;;;;;6145875;23;20512;-84
2022/08/15 03:04:44;;;;;;;0.20;0.10;;;;;;;;;;6170065;23;20330;-85
2022/08/15 03:07:10;;;;;;;0.20;0.10;;;;;;;;;;6148386;23;20013;-83
2022/08/15 03:09:36;;;;;;;0.20;0.20;;;;;;;;;;6144757;23;20490;-85
2022/08/15 03:12:03;;;;;;;0.20;0.10;;;;;;;;;;6169192;23;20405;-85
2022/08/15 03:14:29;;;;;;;0.20;0.10;;;;;;;;;;6169247;23;20294;-85
2022/08/15 03:16:56;;;;;;;0.20;0.10;;;;;;;;;;6147417;23;20021;-85
2022/08/15 03:19:25;;;;;;;0.20;0.10;;;;;;;;;;6167632;23;20020;-85
2022/08/15 03:21:51;;;;;;;0.20;0.10;;;;;;;;;;6167354;23;20009;-85
2022/08/15 03:24:19;;;;;;;0.30;0.30;;;;;;;;;;6166809;23;20023;-84
2022/08/15 03:26:46;;;;;;;0.20;0.10;;;;;;;;;;6170677;23;20019;-85
2022/08/15 03:29:15;;;;;;;0.20;0.10;;;;;;;;;;6155188;23;20039;-85
2022/08/15 03:31:41;;;;;;;0.20;0.10;;;;;;;;;;6175488;23;20028;-84
2022/08/15 03:34:07;;;;;;;0.22;0.15;;;;;;;;;;6176331;23;20069;-85
2022/08/15 03:36:33;;;;;;;0.75;0.57;;;;;;;;;;6151686;23;20021;-84
2022/08/15 03:38:59;;;;;;;0.20;0.10;;;;;;;;;;6150093;23;20028;-84
2022/08/15 03:41:25;;;;;;;0.20;0.17;;;;;;;;;;6150239;23;20013;-84
2022/08/15 03:43:53;;;;;;;0.20;0.10;;;;;;;;;;6175802;23;20012;-84
2022/08/15 03:46:20;;;;;;;0.20;0.10;;;;;;;;;;6174949;23;20052;-85
2022/08/15 03:48:48;;;;;;;0.20;0.10;;;;;;;;;;6174774;23;20055;-85
2022/08/15 03:51:16;;;;;;;0.20;0.10;;;;;;;;;;6174780;23;20544;-84
2022/08/15 03:53:47;;;;;;;0.20;0.10;;;;;;;;;;6150410;23;20264;-85
2022/08/15 03:56:14;;;;;;;0.30;0.20;;;;;;;;;;6174652;23;20048;-86
2022/08/15 03:58:41;;;;;;;0.20;0.10;;;;;;;;;;6174832;23;20091;-84
2022/08/15 04:01:11;;;;;;;0.20;0.10;;;;;;;;;;6172408;23;20016;-85
2022/08/15 04:03:37;;;;;;;0.20;0.10;;;;;;;;;;6175649;23;20321;-84
2022/08/15 04:06:09;;;;;;;0.20;0.15;;;;;;;;;;6147102;23;20016;-84
2022/08/15 04:08:35;;;;;;;0.20;0.10;;;;;;;;;;6177590;23;20356;-84
2022/08/15 04:11:03;;;;;;;0.20;0.15;;;;;;;;;;6150755;23;20448;-84
2022/08/15 04:13:29;;;;;;;0.20;0.20;;;;;;;;;;6173022;23;20111;-84
2022/08/15 04:15:56;;;;;;;0.20;0.10;;;;;;;;;;6173603;23;20017;-84
2022/08/15 04:18:24;;;;;;;0.20;0.10;;;;;;;;;;6174672;23;20089;-84
2022/08/15 04:20:51;;;;;;;0.30;0.30;;;;;;;;;;6150560;23;20508;-87
2022/08/15 04:23:17;;;;;;;0.20;0.10;;;;;;;;;;6173449;23;20356;-85
2022/08/15 04:25:43;;;;;;;0.20;0.10;;;;;;;;;;6174079;23;20408;-86
2022/08/15 04:28:10;;;;;;;0.47;0.25;;;;;;;;;;6149308;23;20082;-84
2022/08/15 04:30:39;;;;;;;0.30;0.20;;;;;;;;;;6174529;23;20119;-84
2022/08/15 04:33:07;;;;;;;0.20;0.13;;;;;;;;;;6175288;23;20046;-85
2022/08/15 04:35:34;;;;;;;0.20;0.10;;;;;;;;;;6175074;23;20032;-85
2022/08/15 04:38:00;;;;;;;0.75;0.20;;;;;;;;;;6176301;23;20364;-84
2022/08/15 04:40:30;;;;;;;0.20;0.10;;;;;;;;;;6149629;23;20019;-83
2022/08/15 04:42:58;;;;;;;0.20;0.10;;;;;;;;;;6151320;23;20521;-86
2022/08/15 04:45:25;;;;;;;0.20;0.20;;;;;;;;;;6174676;23;20016;-85
2022/08/15 04:47:52;;;;;;;0.20;0.10;;;;;;;;;;6176729;23;20545;-85
2022/08/15 04:50:18;;;;;;;0.20;0.10;;;;;;;;;;6175753;23;20459;-85
2022/08/15 04:52:46;;;;;;;0.20;0.10;;;;;;;;;;6177693;23;20016;-85
2022/08/15 04:55:13;;;;;;;0.20;0.10;;;;;;;;;;6174738;23;20421;-85
2022/08/15 04:57:39;;;;;;;0.20;0.10;;;;;;;;;;6178505;23;20475;-85
2022/08/15 05:00:08;;;;;;;0.20;0.10;;;;;;;;;;6176446;23;20013;-85
2022/08/15 05:02:35;;;;;;;0.20;0.10;;;;;;;;;;6178802;23;20046;-84
2022/08/15 05:05:01;;;;;;;0.20;0.10;;;;;;;;;;6152695;23;20020;-85
2022/08/15 05:07:30;;;;;;;0.20;0.10;;;;;;;;;;6177163;23;20091;-84
2022/08/15 05:09:57;;;;;;;0.20;0.10;;;;;;;;;;6174259;23;20035;-84
2022/08/15 05:12:23;;;;;;;0.20;0.10;;;;;;;;;;6153237;23;20009;-85
2022/08/15 05:14:49;;;;;;;0.20;0.10;;;;;;;;;;6176119;23;20012;-85
2022/08/15 05:17:16;;;;;;;0.20;0.10;;;;;;;;;;6152736;23;20020;-85
2022/08/15 05:19:42;;;;;;;0.20;0.10;;;;;;;;;;6153774;23;20020;-87
2022/08/15 05:22:18;;;;;;;0.20;0.10;;;;;;;;;;6153720;23;20042;-85
2022/08/15 05:24:44;;;;;;;0.20;0.10;;;;;;;;;;6181839;23;20341;-86
2022/08/15 05:27:10;;;;;;;0.20;0.20;;;;;;;;;;6177995;23;20326;-87
2022/08/15 05:29:38;;;;;;;0.20;0.10;;;;;;;;;;6152217;23;20056;-85
2022/08/15 05:32:06;;;;;;;0.30;0.20;;;;;;;;;;6177741;23;20648;-85
2022/08/15 05:34:32;;;;;;;0.20;0.10;;;;;;;;;;6178993;23;20086;-84
2022/08/15 05:37:00;;;;;;;0.22;0.13;;;;;;;;;;6153369;23;20028;-84
2022/08/15 05:39:28;;;;;;;0.20;0.10;;;;;;;;;;6179728;23;20027;-84
2022/08/15 05:42:03;;;;;;;0.20;0.10;;;;;;;;;;6180963;23;20069;-84
2022/08/15 05:44:35;;;;;;;0.20;0.10;;;;;;;;;;6179894;23;20076;-84
2022/08/15 05:47:01;;;;;;;;;;;;;;;;;;6179907;23;20017;-84
2022/08/15 05:49:40;;;;;;;0.20;0.10;;;;;;;;;;6176534;23;19951;-84
2022/08/15 05:52:28;;;;;;;1.08;0.32;;;;;;;;;;6176779;23;20050;-84
2022/08/15 05:55:13;;;;;;;0.20;0.20;;;;;;;;;;6180405;23;20385;-84
2022/08/15 05:58:06;;;;;;;0.20;0.10;;;;;;;;;;6177732;23;20044;-84
2022/08/15 06:00:33;;;;;;;0.25;0.25;;;;;;;;;;6176410;23;20130;-84
2022/08/15 06:03:04;;;;;;;0.20;0.10;;;;;;;;;;6152414;23;20431;-84
2022/08/15 06:05:30;;;;;;;0.20;0.10;;;;;;;;;;6177158;23;20115;-84
2022/08/15 06:07:57;;;;;;;0.20;0.10;;;;;;;;;;6176965;23;20081;-84
2022/08/15 06:10:25;;;;;;;0.43;0.17;;;;;;;;;;6152578;22;20013;-83
2022/08/15 06:13:01;;;;;;;0.40;0.35;;;;;;;;;;6176766;23;20017;-84
2022/08/15 06:15:31;;;;;;;0.20;0.10;;;;;;;;;;6176524;23;20020;-84
2022/08/15 06:17:58;;;;;;;0.20;0.10;;;;;;;;;;6178523;23;20400;-84
2022/08/15 06:20:54;;;;;;;0.20;0.10;;;;;;;;;;6179179;23;20013;-83
2022/08/15 06:23:35;;;;;;;0.20;0.10;;;;;;;;;;6187510;23;20516;-84
2022/08/15 06:26:13;;;;;;;0.20;0.10;;;;;;;;;;6181718;23;20028;-84
2022/08/15 06:28:53;;;;;;;0.20;0.20;;;;;;;;;;6178558;23;20100;-84
2022/08/15 06:31:23;;;;;;;0.20;0.20;;;;;;;;;;6180748;23;20017;-84
2022/08/15 06:34:08;;;;;;;0.20;0.10;;;;;;;;;;6179947;23;20146;-85
2022/08/15 06:36:44;;;;;;;0.20;0.10;;;;;;;;;;6180982;23;20016;-84
2022/08/15 06:39:10;;;;;;;0.35;0.32;;;;;;;;;;6179429;23;20025;-84
2022/08/15 06:41:55;;;;;;;0.30;0.20;;;;;;;;;;6178056;23;20031;-83
2022/08/15 06:44:23;;;;;;;0.20;0.10;;;;;;;;;;6179694;23;20512;-85
2022/08/15 06:46:51;;;;;;;0.20;0.10;;;;;;;;;;6177173;23;20074;-84
2022/08/15 06:49:19;;;;;;;0.20;0.10;;;;;;;;;;6178943;23;20099;-85
2022/08/15 06:51:47;;;;;;;0.20;0.10;;;;;;;;;;6177432;23;20020;-86
2022/08/15 06:54:23;;;;;;;0.20;0.10;;;;;;;;;;6177693;23;20453;-84
2022/08/15 06:56:59;;;;;;;0.30;0.30;;;;;;;;;;6179678;23;20016;-85
2022/08/15 06:59:33;;;;;;;0.20;0.10;;;;;;;;;;6179980;23;20017;-85
2022/08/15 07:02:18;;;;;;;0.20;0.10;;;;;;;;;;6179588;23;20017;-85
2022/08/15 07:04:47;;;;;;;0.20;0.10;;;;;;;;;;6180891;23;20012;-85
2022/08/15 07:07:13;;;;;;;0.20;0.10;;;;;;;;;;6178708;23;20487;-83
2022/08/15 07:09:42;;;;;;;0.20;0.10;;;;;;;;;;6179042;23;20020;-85
2022/08/15 07:12:20;;;;;;;0.20;0.10;;;;;;;;;;6178535;23;20105;-86
2022/08/15 07:14:49;;;;;;;0.20;0.20;;;;;;;;;;6176603;22;21617;-83
2022/08/15 07:17:19;;;;;;;0.20;0.10;;;;;;;;;;6201983;22;20025;-84
2022/08/15 07:19:45;;;;;;;0.20;0.10;;;;;;;;;;6177239;23;20048;-82
2022/08/15 07:22:11;;;;;;;0.20;0.10;;;;;;;;;;6153085;22;20023;-82
2022/08/15 07:24:37;;;;;;;0.20;0.10;;;;;;;;;;6177480;22;20016;-82
2022/08/15 07:27:04;;;;;;;0.20;0.10;;;;;;;;;;6151372;22;20061;-83
2022/08/15 07:29:39;;;;;;;0.20;0.10;;;;;;;;;;6150599;23;20477;-82
2022/08/15 07:32:08;;;;;;;0.20;0.10;;;;;;;;;;6154040;23;20059;-84
2022/08/15 07:34:35;;;;;;;0.20;0.10;;;;;;;;;;6154655;23;20017;-83
2022/08/15 07:37:03;;;;;;;0.20;0.10;;;;;;;;;;6177639;23;20052;-82
2022/08/15 07:39:40;;;;;;;0.20;0.10;;;;;;;;;;6152070;23;20091;-82
2022/08/15 07:42:13;;;;;;;0.20;0.10;;;;;;;;;;6201775;23;20023;-82
2022/08/15 07:44:48;;;;;;;0.20;0.10;;;;;;;;;;6153055;23;20024;-83
2022/08/15 07:47:20;;;;;;;0.20;0.10;;;;;;;;;;6153365;23;20042;-83
2022/08/15 07:49:58;;;;;;;0.20;0.10;;;;;;;;;;6152991;23;20448;-84
2022/08/15 07:52:24;;;;;;;0.20;0.10;;;;;;;;;;6177945;23;20362;-82
2022/08/15 07:54:55;;;;;;;0.40;0.20;;;;;;;;;;6177349;23;20052;-81
2022/08/15 07:57:30;;;;;;;0.20;0.10;;;;;;;;;;6153770;23;20020;-82
2022/08/15 08:00:09;;;;;;;0.20;0.15;;;;;;;;;;6177217;23;20017;-83
2022/08/15 08:02:45;;;;;;;0.20;0.10;;;;;;;;;;6202882;23;20013;-82
2022/08/15 08:05:12;;;;;;;0.20;0.10;;;;;;;;;;6152573;23;20019;-83
2022/08/15 08:07:46;;;;;;;0.20;0.10;;;;;;;;;;6152073;23;20008;-82
2022/08/15 08:10:15;;;;;;;0.20;0.10;;;;;;;;;;6202713;23;20017;-83
2022/08/15 08:12:41;;;;;;;0.20;0.10;;;;;;;;;;6202390;23;20080;-83
2022/08/15 08:15:17;;;;;;;0.20;0.10;;;;;;;;;;6152045;22;20008;-82
2022/08/15 08:17:51;;;;;;;0.20;0.10;;;;;;;;;;6177188;23;20015;-83
2022/08/15 08:20:30;;;;;;;0.30;0.30;;;;;;;;;;6177166;23;20021;-84
2022/08/15 08:23:07;;;;;;;0.20;0.10;;;;;;;;;;6153169;23;20095;-82
2022/08/15 08:25:39;;;;;;;0.20;0.10;;;;;;;;;;6152998;23;20012;-83
2022/08/15 08:28:06;;;;;;;0.20;0.10;;;;;;;;;;6202577;23;20048;-83
2022/08/15 08:30:37;;;;;;;0.20;0.10;;;;;;;;;;6151777;23;20553;-85
2022/08/15 08:33:18;;;;;;;0.20;0.10;;;;;;;;;;6152662;23;20012;-84
2022/08/15 08:35:54;;;;;;;0.20;0.10;;;;;;;;;;6202202;23;20096;-85
2022/08/15 08:38:32;;;;;;;0.20;0.10;;;;;;;;;;6152492;23;20024;-84
2022/08/15 08:41:28;;;;;;;0.20;0.10;;;;;;;;;;6200480;23;20048;-84
2022/08/15 08:44:04;;;;;;;0.20;0.10;;;;;;;;;;6152166;23;20073;-83
2022/08/15 08:46:30;;;;;;;0.20;0.10;;;;;;;;;;6202178;23;20340;-84
2022/08/15 08:49:06;;;;;;;0.20;0.10;;;;;;;;;;6201970;23;20017;-83
2022/08/15 08:51:43;;;;;;;0.20;0.10;;;;;;;;;;6152196;23;20091;-82
2022/08/15 08:54:12;;;;;;;0.20;0.10;;;;;;;;;;6201117;23;20020;-85
2022/08/15 08:56:40;;;;;;;0.20;0.10;;;;;;;;;;6201310;23;20063;-84
2022/08/15 08:59:16;;;;;;;0.20;0.10;;;;;;;;;;6176410;23;20013;-83
2022/08/15 09:01:43;;;;;;;0.20;0.10;;;;;;;;;;6152099;22;20048;-82
2022/08/15 09:04:15;;;;;;;0.20;0.10;;;;;;;;;;6152347;23;20019;-84
2022/08/15 09:06:42;;;;;;;0.20;0.10;;;;;;;;;;6152759;23;20009;-83
2022/08/15 09:09:13;;;;;;;0.20;0.10;;;;;;;;;;6149426;23;20020;-83
2022/08/15 09:11:48;;;;;;;0.20;0.13;;;;;;;;;;6152065;23;20153;-86
2022/08/15 09:14:17;;;;;;;0.20;0.10;;;;;;;;;;6152364;23;20016;-85
2022/08/15 09:16:44;;;;;;;1.55;0.35;;;;;;;;;;6200985;22;20019;-85
2022/08/15 09:19:10;;;;;;;0.20;0.10;;;;;;;;;;6151857;23;20469;-83
2022/08/15 09:21:37;;;;;;;0.20;0.10;;;;;;;;;;6202653;23;20024;-83
2022/08/15 09:24:04;;;;;;;0.20;0.10;;;;;;;;;;6152050;23;20304;-84
2022/08/15 09:26:33;;;;;;;0.30;0.20;;;;;;;;;;6201779;23;20012;-83
2022/08/15 09:29:13;;;;;;;0.20;0.10;;;;;;;;;;6176470;23;20016;-84
2022/08/15 09:31:42;;;;;;;0.20;0.20;;;;;;;;;;6201620;23;20074;-87
2022/08/15 09:34:27;;;;;;;0.20;0.10;;;;;;;;;;6151836;23;20012;-86
2022/08/15 09:36:53;;;;;;;0.20;0.10;;;;;;;;;;6151854;23;20069;-86
2022/08/15 09:39:28;;;;;;;0.20;0.10;;;;;;;;;;6200883;23;20040;-86
2022/08/15 09:41:55;;;;;;;0.20;0.10;;;;;;;;;;6152036;22;20017;-84
2022/08/15 09:44:27;;;;;;;0.20;0.10;;;;;;;;;;6150459;23;20360;-84
2022/08/15 09:47:01;;;;;;;0.20;0.10;;;;;;;;;;6201599;23;20402;-86
2022/08/15 09:49:30;;;;;;;0.20;0.10;;;;;;;;;;6151601;23;20019;-89
2022/08/15 09:52:18;;;;;;;0.20;0.10;;;;;;;;;;6152023;23;20017;-87
2022/08/15 09:54:54;;;;;;;0.20;0.10;;;;;;;;;;6179481;22;20055;-86
2022/08/15 09:57:30;;;;;;;0.20;0.20;;;;;;;;;;6151713;23;20509;-89
2022/08/15 10:00:24;;;;;;;0.20;0.10;;;;;;;;;;6151883;22;20099;-87
2022/08/15 10:02:53;;;;;;;0.20;0.10;;;;;;;;;;6177540;23;20096;-89
2022/08/15 10:05:38;;;;;;;0.20;0.10;;;;;;;;;;6153258;23;20048;-86
2022/08/15 10:08:08;;;;;;;0.20;0.10;;;;;;;;;;6152145;23;20464;-88
2022/08/15 10:10:37;;;;;;;0.20;0.10;;;;;;;;;;6152403;23;20353;-88
2022/08/15 10:13:09;;;;;;;0.20;0.10;;;;;;;;;;6152894;23;20109;-88
2022/08/15 10:15:39;;;;;;;;;;;;;;;;;;6202242;22;20042;-87
2022/08/15 10:18:08;;;;;;;0.20;0.20;;;;;;;;;;6177257;23;20006;-88
2022/08/15 10:21:17;;;;;;;0.55;0.38;;;;;;;;;;6177665;23;20023;-88
2022/08/15 10:23:54;;;;;;;0.20;0.10;;;;;;;;;;6152202;22;20115;-90
2022/08/15 10:26:30;;;;;;;0.20;0.10;;;;;;;;;;6151983;23;20440;-88
2022/08/15 10:29:03;;;;;;;0.20;0.10;;;;;;;;;;6152479;23;20028;-87
2022/08/15 10:31:37;;;;;;;0.20;0.15;;;;;;;;;;6152909;23;20024;-88
2022/08/15 10:34:29;;;;;;;0.20;0.10;;;;;;;;;;6153040;22;20016;-87
2022/08/15 10:37:30;;;;;;;0.20;0.10;;;;;;;;;;6204068;23;20017;-89
2022/08/15 10:39:59;;;;;;;0.25;0.15;;;;;;;;;;6152643;22;20015;-85
2022/08/15 10:42:49;;;;;;;0.20;0.10;;;;;;;;;;6201660;23;20017;-87
2022/08/15 10:45:32;;;;;;;0.20;0.20;;;;;;;;;;6152777;22;20559;-89
2022/08/15 10:48:34;;;;;;;;;;;;;;;;;;;;;
2022/08/15 10:51:04;;;;;;;0.20;0.10;;;;;;;;;;6176803;23;20095;-87
2022/08/15 10:54:05;;;;;;;0.30;0.22;;;;;;;;;;6201172;23;20012;-86
2022/08/15 11:00:32;;;;;;;0.20;0.17;;;;;;;;;;6114604;23;20017;-87
2022/08/15 11:03:04;;;;;;;0.20;0.10;;;;;;;;;;6137269;23;20024;-86
2022/08/15 11:06:03;;;;;;;0.20;0.10;;;;;;;;;;6152977;22;20464;-87
2022/08/15 11:09:18;;;;;;;;;;;;;;;;;;;;;
2022/08/15 11:12:13;;;;;;;0.20;0.10;;;;;;;;;;6201853;23;20025;-89
2022/08/15 11:15:15;;;;;;;0.20;0.10;;;;;;;;;;6153197;22;20019;-88
2022/08/15 11:17:47;;;;;;;0.20;0.10;;;;;;;;;;6180836;23;20385;-89
2022/08/15 11:20:19;;;;;;;0.30;0.20;;;;;;;;;;6154533;22;20032;-88
2022/08/15 11:23:22;;;;;;;0.20;0.15;;;;;;;;;;6156128;22;20044;-89
2022/08/15 11:26:00;;;;;;;0.20;0.15;;;;;;;;;;6154202;22;20088;-89
2022/08/15 11:28:41;;;;;;;0.20;0.10;;;;;;;;;;6154760;22;20506;-89
2022/08/15 11:31:20;;;;;;;0.20;0.10;;;;;;;;;;6155382;23;20382;-89
2022/08/15 11:34:07;;;;;;;0.20;0.10;;;;;;;;;;6112609;23;20056;-87
2022/08/15 11:37:09;;;;;;;0.20;0.10;;;;;;;;;;6189535;23;20025;-85
2022/08/15 11:39:39;;;;;;;0.20;0.10;;;;;;;;;;6083438;23;20025;-86
2022/08/15 11:42:10;;;;;;;0.20;0.10;;;;;;;;;;6214675;23;20321;-87
2022/08/15 11:45:27;;;;;;;0.20;0.10;;;;;;;;;;6176740;23;20100;-87
2022/08/15 11:47:54;;;;;;;0.20;0.20;;;;;;;;;;6101367;23;20048;-87
2022/08/15 11:50:29;;;;;;;0.20;0.10;;;;;;;;;;6215318;23;20093;-86
2022/08/15 11:53:01;;;;;;;0.20;0.10;;;;;;;;;;6189594;23;20057;-87
2022/08/15 11:55:56;;;;;;;0.20;0.10;;;;;;;;;;6190095;23;20022;-88
2022/08/15 11:58:31;;;;;;;0.20;0.20;;;;;;;;;;6190297;23;20453;-88
2022/08/15 12:01:26;;;;;;;0.20;0.10;;;;;;;;;;6189513;23;20022;-87
2022/08/15 12:04:36;;;;;;;0.22;0.20;;;;;;;;;;6222065;23;20051;-87
2022/08/15 12:07:16;;;;;;;0.93;0.50;;;;;;;;;;6153172;23;20016;-87
2022/08/15 12:09:58;;;;;;;0.20;0.10;;;;;;;;;;6176639;23;20464;-87
2022/08/15 12:13:04;;;;;;;0.20;0.10;;;;;;;;;;6202552;23;20304;-86
2022/08/15 12:16:01;;;;;;;0.20;0.13;;;;;;;;;;6209069;23;20073;-89
2022/08/15 12:18:32;;;;;;;0.30;0.20;;;;;;;;;;6235989;23;20047;-88
2022/08/15 12:27:10;;;;;;;0.38;0.38;;;;;;;;;;6174424;23;20103;-88
2022/08/15 12:29:57;;;;;;;0.20;0.10;;;;;;;;;;6172774;23;20013;-89
2022/08/15 12:32:23;;;;;;;0.20;0.10;;;;;;;;;;6171861;23;20390;-86
2022/08/15 12:35:22;;;;;;;0.20;0.10;;;;;;;;;;6171926;23;20410;-88
2022/08/15 12:37:57;;;;;;;0.57;0.57;;;;;;;;;;6136148;23;20021;-86
2022/08/15 12:43:01;;;;;;;0.20;0.10;;;;;;;;;;6234115;23;20383;-90
2022/08/15 12:45:27;;;;;;;0.20;0.10;;;;;;;;;;6203795;23;20039;-88
2022/08/15 12:47:55;;;;;;;0.55;0.40;;;;;;;;;;6209020;23;20094;-86
2022/08/15 12:50:21;;;;;;;0.25;0.25;;;;;;;;;;6207596;23;20013;-84
2022/08/15 12:52:48;;;;;;;0.20;0.10;;;;;;;;;;6287968;22;20015;-87
2022/08/15 12:55:14;;;;;;;0.47;0.13;;;;;;;;;;6313815;22;20027;-85
2022/08/15 12:57:43;;;;;;;0.20;0.15;;;;;;;;;;6182135;23;20514;-89
2022/08/15 13:00:12;;;;;;;0.20;0.10;;;;;;;;;;6233171;23;20084;-91
2022/08/15 13:02:40;;;;;;;0.20;0.10;;;;;;;;;;6183249;23;20317;-90
2022/08/15 13:05:15;;;;;;;0.20;0.10;;;;;;;;;;6286725;22;20073;-87
2022/08/15 13:07:41;;;;;;;0.20;0.20;;;;;;;;;;6182223;23;20062;-84
2022/08/15 13:10:07;;;;;;;0.30;0.20;;;;;;;;;;6181904;23;20012;-85
2022/08/15 13:12:33;;;;;;;0.20;0.10;;;;;;;;;;6181611;23;20047;-88
2022/08/15 13:14:59;;;;;;;0.20;0.20;;;;;;;;;;6206595;23;20024;-85
2022/08/15 13:17:29;;;;;;;0.20;0.10;;;;;;;;;;6287388;22;20513;-89
2022/08/15 13:25:24;;;;;;;0.30;0.30;;;;;;;;;;6207782;23;20013;-87
2022/08/15 13:27:50;;;;;;;0.40;0.17;;;;;;;;;;6287094;22;20460;-86
2022/08/15 13:30:18;;;;;;;0.20;0.10;;;;;;;;;;6232545;23;20016;-85
2022/08/15 13:32:44;;;;;;;0.30;0.30;;;;;;;;;;6182235;23;20041;-87
2022/08/15 13:35:12;;;;;;;0.20;0.20;;;;;;;;;;6286079;22;20448;-88
2022/08/15 13:37:39;;;;;;;0.20;0.10;;;;;;;;;;6182093;23;20008;-88
2022/08/15 13:40:09;;;;;;;0.22;0.15;;;;;;;;;;6207296;23;20098;-86
2022/08/15 13:42:35;;;;;;;0.40;0.40;;;;;;;;;;6286980;22;20528;-86
2022/08/15 13:45:04;;;;;;;0.20;0.20;;;;;;;;;;6181674;23;20012;-87
2022/08/15 13:47:30;;;;;;;0.30;0.30;;;;;;;;;;6207429;23;20008;-88
2022/08/15 13:49:58;;;;;;;0.20;0.20;;;;;;;;;;6285965;22;20020;-89
2022/08/15 13:52:24;;;;;;;0.20;0.10;;;;;;;;;;6182349;23;20098;-88
2022/08/15 13:54:50;;;;;;;0.20;0.10;;;;;;;;;;6181030;23;20507;-86
2022/08/15 13:57:19;;;;;;;0.20;0.10;;;;;;;;;;6286424;22;20127;-86
2022/08/15 13:59:49;;;;;;;0.28;0.28;;;;;;;;;;6312653;22;20047;-85
2022/08/15 14:02:15;;;;;;;0.20;0.10;;;;;;;;;;6182455;23;20012;-84
2022/08/15 14:04:48;;;;;;;0.20;0.10;;;;;;;;;;6182508;23;20012;-87
2022/08/15 14:07:17;;;;;;;0.20;0.10;;;;;;;;;;6181230;23;20043;-88
2022/08/15 14:09:46;;;;;;;0.30;0.30;;;;;;;;;;6181352;23;20293;-86
2022/08/15 14:12:12;;;;;;;0.20;0.20;;;;;;;;;;6231616;23;20023;-81
2022/08/15 14:14:38;;;;;;;0.20;0.10;;;;;;;;;;6181875;23;20095;-89
2022/08/15 14:17:06;;;;;;;0.20;0.10;;;;;;;;;;6182521;23;20018;-84
2022/08/15 14:19:32;;;;;;;0.20;0.10;;;;;;;;;;6232852;23;20076;-90
2022/08/15 14:21:59;;;;;;;0.30;0.25;;;;;;;;;;6283007;22;20016;-88
2022/08/15 14:24:26;;;;;;;0.30;0.30;;;;;;;;;;6184407;23;20008;-90
2022/08/15 14:27:04;;;;;;;0.40;0.40;;;;;;;;;;6185172;23;20012;-88
2022/08/15 14:29:34;;;;;;;0.20;0.17;;;;;;;;;;6233608;23;20012;-87
2022/08/15 14:32:00;;;;;;;0.20;0.10;;;;;;;;;;6181879;23;20012;-86
2022/08/15 14:34:26;;;;;;;0.20;0.10;;;;;;;;;;6231937;23;20181;-85
2022/08/15 14:36:54;;;;;;;0.20;0.10;;;;;;;;;;6181028;23;20012;-84
2022/08/15 14:39:21;;;;;;;0.20;0.10;;;;;;;;;;6231666;23;20008;-86
2022/08/15 14:41:47;;;;;;;0.30;0.20;;;;;;;;;;6181196;23;20020;-86
2022/08/15 14:44:14;;;;;;;0.20;0.10;;;;;;;;;;6231238;23;20092;-85
2022/08/15 14:46:42;;;;;;;0.20;0.13;;;;;;;;;;6183041;23;20013;-84
2022/08/15 14:49:08;;;;;;;0.20;0.10;;;;;;;;;;6184115;23;20020;-86
2022/08/15 14:51:36;;;;;;;0.20;0.10;;;;;;;;;;6183552;23;20016;-86
2022/08/15 14:54:04;;;;;;;0.20;0.10;;;;;;;;;;6181422;23;20153;-86
2022/08/15 14:56:30;;;;;;;0.20;0.20;;;;;;;;;;6182523;23;20055;-87
2022/08/15 14:58:58;;;;;;;0.20;0.20;;;;;;;;;;6233319;23;20019;-85
2022/08/15 15:01:24;;;;;;;0.20;0.20;;;;;;;;;;6182191;23;20383;-86
2022/08/15 15:03:51;;;;;;;0.20;0.10;;;;;;;;;;6183177;23;20042;-85
2022/08/15 15:06:21;;;;;;;0.20;0.10;;;;;;;;;;6207109;23;20048;-87
2022/08/15 15:08:48;;;;;;;0.20;0.10;;;;;;;;;;6180788;23;20035;-87
2022/08/15 15:11:15;;;;;;;0.20;0.10;;;;;;;;;;6232209;23;20261;-86
2022/08/15 15:13:42;;;;;;;0.40;0.40;;;;;;;;;;6180136;23;20016;-84
2022/08/15 15:16:09;;;;;;;0.40;0.30;;;;;;;;;;6181216;23;20506;-87
2022/08/15 15:18:36;;;;;;;0.22;0.15;;;;;;;;;;6182085;23;20012;-86
2022/08/15 15:21:04;;;;;;;0.20;0.20;;;;;;;;;;6289799;22;20098;-86
2022/08/15 15:23:31;;;;;;;0.40;0.30;;;;;;;;;;6184734;23;20058;-86
2022/08/15 15:25:58;;;;;;;0.20;0.10;;;;;;;;;;6231434;23;20031;-85
2022/08/15 15:28:25;;;;;;;0.35;0.35;;;;;;;;;;6180465;23;20022;-82
2022/08/15 15:30:53;;;;;;;0.28;0.28;;;;;;;;;;6233458;23;20442;-88
2022/08/15 15:33:19;;;;;;;0.40;0.40;;;;;;;;;;6230862;23;20065;-87